Time;durP1;ratioP1;P1;durP2;ratioP2;P2;SDS_P1;SDS_P2;PMS_P1;PMS_P2;Temp;Humidity;BMP_temperature;BMP_pressure;BME280_temperature;BME280_humidity;BME280_pressure;Samples;Min_cycle;Max_cycle;Signal;HPM_P1;HPM_P2
2024/02/29 20:07:02;;;;;;;8.18;3.53;;;21.60;54.00;;;;;;5078186;27;21230;-66
2024/02/29 20:09:29;;;;;;;7.95;3.67;;;23.00;51.40;;;;;;5068097;27;20105;-70
2024/02/29 20:11:56;;;;;;;6.97;3.42;;;23.20;50.70;;;;;;5084396;27;20480;-67
2024/02/29 20:14:25;;;;;;;9.45;3.60;;;23.30;50.30;;;;;;5052992;28;77730;-68
2024/02/29 20:16:52;;;;;;;10.20;3.90;;;23.40;50.10;;;;;;5069429;27;51733;-70
2024/02/29 20:19:19;;;;;;;5.32;3.15;;;23.50;49.90;;;;;;5070665;28;20790;-70
2024/02/29 20:21:48;;;;;;;5.38;3.35;;;23.60;49.80;;;;;;5070160;28;20767;-70
2024/02/29 20:24:15;;;;;;;11.32;3.92;;;23.60;49.60;;;;;;5068462;28;20057;-69
2024/02/29 20:26:43;;;;;;;17.00;3.50;;;23.60;49.50;;;;;;5067053;28;20142;-68
2024/02/29 20:29:12;;;;;;;6.95;3.35;;;23.60;49.50;;;;;;5071585;28;20415;-67
2024/02/29 20:31:39;;;;;;;7.80;3.45;;;23.60;49.60;;;;;;5068450;28;20118;-68
2024/02/29 20:34:06;;;;;;;4.88;3.03;;;23.60;49.60;;;;;;5069738;28;20484;-68
2024/02/29 20:36:33;;;;;;;6.78;3.10;;;23.60;49.70;;;;;;5068512;28;20048;-67
2024/02/29 20:39:01;;;;;;;6.50;3.58;;;23.50;49.60;;;;;;5067043;28;20514;-68
2024/02/29 20:41:28;;;;;;;10.15;3.75;;;23.50;49.60;;;;;;5083624;28;20048;-68
2024/02/29 20:43:55;;;;;;;8.35;3.88;;;23.50;49.60;;;;;;5067516;28;20051;-67
2024/02/29 20:46:24;;;;;;;7.15;3.15;;;23.50;49.70;;;;;;5067053;28;20060;-70
2024/02/29 20:48:52;;;;;;;5.97;3.17;;;23.50;49.60;;;;;;5068023;28;20048;-68
2024/02/29 20:51:19;;;;;;;5.15;2.88;;;23.50;50.20;;;;;;5067956;28;20049;-66
2024/02/29 20:53:46;;;;;;;8.38;3.20;;;23.50;49.50;;;;;;5067119;28;20484;-67
2024/02/29 20:56:12;;;;;;;7.05;3.05;;;23.50;49.80;;;;;;5066752;28;20080;-67
2024/02/29 20:58:39;;;;;;;6.63;3.15;;;23.50;50.10;;;;;;5067162;28;20055;-67
2024/02/29 21:01:06;;;;;;;9.50;3.50;;;23.40;50.00;;;;;;5066325;28;20477;-67
2024/02/29 21:03:33;;;;;;;5.60;2.92;;;23.40;49.80;;;;;;5067192;28;20071;-67
2024/02/29 21:06:00;;;;;;;7.32;3.22;;;23.40;49.90;;;;;;5068916;28;20110;-67
2024/02/29 21:08:33;;;;;;;5.20;2.80;;;23.40;50.00;;;;;;5065857;28;20136;-67
2024/02/29 21:11:01;;;;;;;5.93;2.92;;;23.40;49.80;;;;;;5068017;28;20505;-67
2024/02/29 21:13:33;;;;;;;8.63;3.13;;;23.40;49.90;;;;;;5082699;28;20077;-67
2024/02/29 21:16:00;;;;;;;6.18;3.15;;;23.30;49.80;;;;;;5070121;28;20044;-67
2024/02/29 21:18:27;;;;;;;5.38;2.95;;;23.30;50.00;;;;;;5089208;28;20095;-67
2024/02/29 21:20:54;;;;;;;6.15;3.47;;;23.30;50.00;;;;;;5054487;28;20053;-66
2024/02/29 21:23:21;;;;;;;8.82;3.22;;;23.30;50.00;;;;;;5053960;28;20596;-67
2024/02/29 21:25:48;;;;;;;7.47;3.10;;;23.30;50.10;;;;;;5053887;28;20091;-67
2024/02/29 21:28:15;;;;;;;6.88;3.05;;;23.30;50.10;;;;;;5054546;28;20103;-67
2024/02/29 21:30:42;;;;;;;5.13;2.40;;;23.30;50.20;;;;;;5052906;28;20783;-68
2024/02/29 21:33:09;;;;;;;4.63;3.00;;;23.20;50.10;;;;;;5053878;28;20087;-68
2024/02/29 21:35:39;;;;;;;5.00;2.90;;;23.20;50.10;;;;;;5054009;28;20055;-68
2024/02/29 21:38:05;;;;;;;7.28;2.72;;;23.20;50.20;;;;;;5053862;28;20487;-67
2024/02/29 21:40:33;;;;;;;4.32;2.85;;;23.20;50.20;;;;;;5052947;28;20530;-68
2024/02/29 21:42:59;;;;;;;8.00;2.83;;;23.20;50.30;;;;;;5054048;28;20049;-67
2024/02/29 21:45:26;;;;;;;6.28;3.33;;;23.20;50.30;;;;;;5051064;28;20072;-67
2024/02/29 21:47:53;;;;;;;17.65;3.40;;;23.20;50.30;;;;;;5053268;28;20466;-67
2024/02/29 21:50:21;;;;;;;5.07;3.00;;;23.20;50.40;;;;;;5052477;28;20048;-68
2024/02/29 21:52:48;;;;;;;10.52;3.40;;;23.20;50.50;;;;;;5051155;28;20072;-67
2024/02/29 21:55:15;;;;;;;8.32;3.08;;;23.20;50.40;;;;;;5053035;28;20506;-68
2024/02/29 21:57:43;;;;;;;5.72;3.00;;;23.30;49.90;;;;;;5051902;28;20151;-68
2024/02/29 22:00:12;;;;;;;9.10;2.88;;;23.30;49.80;;;;;;5053236;28;20472;-67
2024/02/29 22:02:42;;;;;;;8.23;2.97;;;23.40;49.60;;;;;;5052390;28;20056;-68
2024/02/29 22:05:10;;;;;;;3.85;2.45;;;23.40;49.60;;;;;;5049828;28;20060;-66
2024/02/29 22:07:37;;;;;;;4.07;2.80;;;23.40;49.60;;;;;;5051712;28;20045;-69
2024/02/29 22:10:06;;;;;;;5.35;2.90;;;23.40;49.40;;;;;;5052656;28;20549;-69
2024/02/29 22:12:32;;;;;;;8.25;3.20;;;23.30;49.40;;;;;;5053327;28;20492;-69
2024/02/29 22:15:00;;;;;;;13.95;3.08;;;23.30;49.50;;;;;;5048638;28;20388;-69
2024/02/29 22:17:27;;;;;;;6.25;2.78;;;23.40;49.80;;;;;;5052305;28;20037;-69
2024/02/29 22:19:57;;;;;;;11.68;2.50;;;23.30;49.70;;;;;;5054894;28;20048;-69
2024/02/29 22:22:23;;;;;;;5.55;2.90;;;23.20;49.70;;;;;;5054467;28;20040;-70
2024/02/29 22:24:50;;;;;;;4.35;2.72;;;23.20;50.10;;;;;;5085096;28;20132;-70
2024/02/29 22:27:17;;;;;;;9.05;3.20;;;23.10;50.00;;;;;;5053191;28;20049;-70
2024/02/29 22:29:44;;;;;;;4.25;2.65;;;23.10;50.30;;;;;;5053910;28;20041;-71
2024/02/29 22:32:11;;;;;;;6.97;2.78;;;23.00;50.20;;;;;;5054930;28;20151;-69
2024/02/29 22:34:38;;;;;;;6.90;2.78;;;23.00;50.30;;;;;;5052422;28;20419;-70
2024/02/29 22:37:05;;;;;;;5.53;2.67;;;23.00;50.30;;;;;;5053503;28;20490;-70
2024/02/29 22:39:32;;;;;;;8.73;3.10;;;23.00;50.40;;;;;;5066956;28;20045;-69
2024/02/29 22:41:59;;;;;;;9.50;2.65;;;23.00;50.40;;;;;;5053124;28;20041;-69
2024/02/29 22:44:28;;;;;;;5.15;2.50;;;23.00;50.40;;;;;;5051767;28;20049;-69
2024/02/29 22:46:56;;;;;;;7.28;2.63;;;23.00;50.50;;;;;;5051168;28;20045;-68
2024/02/29 22:49:23;;;;;;;10.63;2.90;;;23.00;50.50;;;;;;5050057;28;20107;-67
2024/02/29 22:51:50;;;;;;;5.38;2.55;;;23.00;50.60;;;;;;5049880;28;20051;-66
2024/02/29 22:54:17;;;;;;;9.23;2.75;;;23.00;50.60;;;;;;5037607;28;20041;-66
2024/02/29 22:56:44;;;;;;;5.72;3.42;;;23.00;50.30;;;;;;5049911;28;20045;-66
2024/02/29 22:59:11;;;;;;;5.45;2.30;;;23.00;50.40;;;;;;5082024;28;20719;-68
2024/02/29 23:01:44;;;;;;;3.00;2.17;;;22.90;50.50;;;;;;5050574;28;20059;-66
2024/02/29 23:04:12;;;;;;;5.00;2.40;;;22.80;50.40;;;;;;5053165;28;20052;-66
2024/02/29 23:06:42;;;;;;;7.28;2.45;;;22.80;50.50;;;;;;5049229;28;20322;-66
2024/02/29 23:09:09;;;;;;;2.67;1.80;;;22.80;51.20;;;;;;5064423;28;20498;-66
2024/02/29 23:11:37;;;;;;;3.30;2.10;;;22.70;50.60;;;;;;5050065;28;20510;-66
2024/02/29 23:14:04;;;;;;;9.27;2.55;;;22.70;50.60;;;;;;5050693;28;20495;-66
2024/02/29 23:16:31;;;;;;;5.68;3.10;;;22.70;50.70;;;;;;5049462;28;20052;-66
2024/02/29 23:18:58;;;;;;;14.10;3.22;;;22.60;50.70;;;;;;5050393;28;20049;-66
2024/02/29 23:21:25;;;;;;;3.42;2.47;;;22.60;50.80;;;;;;5049029;28;20053;-66
2024/02/29 23:23:52;;;;;;;4.15;2.20;;;22.50;50.70;;;;;;5050645;28;20049;-66
2024/02/29 23:26:21;;;;;;;4.55;2.70;;;22.50;50.80;;;;;;5048843;28;20037;-66
2024/02/29 23:28:48;;;;;;;2.83;1.80;;;22.50;50.80;;;;;;5050415;28;20455;-66
2024/02/29 23:31:16;;;;;;;6.47;2.50;;;22.50;50.90;;;;;;5049758;28;20045;-66
2024/02/29 23:33:45;;;;;;;6.45;1.90;;;22.40;50.90;;;;;;5081973;28;20055;-66
2024/02/29 23:36:13;;;;;;;3.90;2.50;;;22.40;50.90;;;;;;5050407;28;20488;-66
2024/02/29 23:38:40;;;;;;;3.47;2.58;;;22.40;51.00;;;;;;5049122;28;20059;-66
2024/02/29 23:41:07;;;;;;;4.20;2.15;;;22.30;51.00;;;;;;5049783;28;20051;-66
2024/02/29 23:43:34;;;;;;;3.47;2.20;;;22.30;51.00;;;;;;5049820;28;20090;-66
2024/02/29 23:46:01;;;;;;;5.00;2.50;;;22.30;51.00;;;;;;5049212;28;20132;-66
2024/02/29 23:48:28;;;;;;;5.03;2.35;;;22.30;51.10;;;;;;5050268;28;20509;-66
2024/02/29 23:50:54;;;;;;;4.10;2.20;;;22.30;51.10;;;;;;5049939;28;20049;-66
2024/02/29 23:53:21;;;;;;;4.75;2.50;;;22.20;51.10;;;;;;5048451;28;20041;-66
2024/02/29 23:55:48;;;;;;;4.00;2.50;;;22.20;51.10;;;;;;5049666;28;20052;-66
2024/02/29 23:58:15;;;;;;;3.25;2.10;;;22.20;51.20;;;;;;5081641;28;20044;-66
